This is the latest recevied weather packets stored in our database for station/object KE5VT. If no packets are shown the sender has not sent any weather packets the latest 10 day(s).
| Time | Temp. | Humidity | Pressure | Rain* | Wind** | Luminosity | Snow |
|---|---|---|---|---|---|---|---|
| 1777840959 | 20.56° C | 34% | 1012.9 hPa | 0 mm | - | 484 W/m² | - |
| 1777840656 | 20° C | 36% | 1013 hPa | 0 mm | - | 234 W/m² | - |
| 1777840354 | 20.56° C | 36% | 1012.9 hPa | 0 mm | - | 181 W/m² | - |
| 1777840051 | 20.56° C | 36% | 1013.2 hPa | 0 mm | - | 225 W/m² | - |
| 1777839749 | 20.56° C | 37% | 1013.1 hPa | 0 mm | - | 49 W/m² | - |
| 1777839446 | 20° C | 37% | 1013.2 hPa | 0 mm | - | 131 W/m² | - |
| 1777839144 | 21.11° C | 34% | 1013.2 hPa | 0 mm | - | 382 W/m² | - |
| 1777838840 | 20.56° C | 35% | 1013.3 hPa | 0 mm | - | 566 W/m² | - |
| 1777838536 | 20° C | 37% | 1013.4 hPa | 0 mm | - | 575 W/m² | - |
| 1777838233 | 19.44° C | 36% | 1013.5 hPa | 0 mm | - | 582 W/m² | - |
| 1777837930 | 19.44° C | 36% | 1013.5 hPa | 0 mm | - | 595 W/m² | - |
| 1777837627 | 19.44° C | 36% | 1013.6 hPa | 0 mm | - | 142 W/m² | - |
| 1777837323 | 19.44° C | 38% | 1013.7 hPa | 0 mm | - | 52 W/m² | - |
| 1777837019 | 20° C | 36% | 1013.8 hPa | 0 mm | - | 619 W/m² | - |
| 1777836715 | 19.44° C | 38% | 1014 hPa | 0 mm | - | 636 W/m² | - |
| 1777836411 | 20° C | 38% | 1014 hPa | 0 mm | - | 599 W/m² | - |
| 1777836107 | 19.44° C | 39% | 1014 hPa | 0 mm | - | 655 W/m² | - |
| 1777835803 | 18.89° C | 39% | 1014.1 hPa | 0 mm | - | 610 W/m² | - |
| 1777835501 | 18.89° C | 39% | 1014.2 hPa | 0 mm | - | 84 W/m² | - |
| 1777835198 | 18.89° C | 41% | 1014.3 hPa | 0 mm | - | 172 W/m² | - |
| 1777834894 | 19.44° C | 40% | 1014.4 hPa | 0 mm | - | 121 W/m² | - |
| 1777834591 | 19.44° C | 40% | 1014.3 hPa | 0 mm | - | 59 W/m² | - |
| 1777834286 | 18.89° C | 40% | 1014.3 hPa | 0 mm | - | 695 W/m² | - |
| 1777833981 | 18.89° C | 40% | 1014.5 hPa | 0 mm | - | 405 W/m² | - |
| 1777833678 | 18.89° C | 39% | 1014.6 hPa | 0 mm | - | 624 W/m² | - |
* Rain latest hour (hover to see other rain measurements)
** Current wind speed in m/s (hover to see current wind gust speed)